Time;durP1;ratioP1;P1;durP2;ratioP2;P2;SDS_P1;SDS_P2;PMS_P1;PMS_P2;Temp;Humidity;BMP_temperature;BMP_pressure;BME280_temperature;BME280_humidity;BME280_pressure;Samples;Min_cycle;Max_cycle;Signal;HPM_P1;HPM_P2
2023/11/20 00:02:02;;;;;;;4.70;2.22;;;12.80;99.90;;;;;;4996635;28;20460;-35
2023/11/20 00:04:28;;;;;;;4.80;1.93;;;12.80;99.90;;;;;;4996366;28;20295;-30
2023/11/20 00:06:54;;;;;;;5.77;2.00;;;12.80;99.90;;;;;;4978738;28;21242;-31
2023/11/20 00:09:21;;;;;;;6.57;1.90;;;12.80;99.90;;;;;;4991009;28;20565;-31
2023/11/20 00:11:47;;;;;;;7.93;2.40;;;12.80;99.90;;;;;;4995732;28;21053;-31
2023/11/20 00:14:13;;;;;;;5.07;2.40;;;12.80;99.90;;;;;;4994672;28;20199;-35
2023/11/20 00:16:39;;;;;;;5.57;2.20;;;12.80;99.90;;;;;;4998003;28;20834;-28
2023/11/20 00:19:10;;;;;;;6.70;2.30;;;12.80;99.90;;;;;;4991926;28;20439;-29
2023/11/20 00:21:41;;;;;;;7.77;2.40;;;12.80;99.90;;;;;;4997254;28;20535;-35
2023/11/20 00:24:08;;;;;;;6.10;2.10;;;12.80;99.90;;;;;;4962926;28;20541;-35
2023/11/20 00:26:35;;;;;;;5.17;2.37;;;12.80;99.90;;;;;;4996957;28;20435;-31
2023/11/20 00:29:08;;;;;;;6.20;3.50;;;12.80;99.90;;;;;;4979313;28;20434;-35
2023/11/20 00:31:36;;;;;;;5.40;2.43;;;12.80;99.90;;;;;;4997184;28;20459;-32
2023/11/20 00:34:03;;;;;;;6.13;2.50;;;12.80;99.90;;;;;;4979075;28;20447;-32
2023/11/20 00:36:32;;;;;;;5.93;2.60;;;12.80;99.90;;;;;;4997852;28;20436;-34
2023/11/20 00:39:00;;;;;;;8.40;2.60;;;12.70;99.90;;;;;;4989924;28;20425;-35
2023/11/20 00:41:30;;;;;;;3.78;2.15;;;12.70;99.90;;;;;;4979604;28;20471;-31
2023/11/20 00:43:56;;;;;;;6.07;2.47;;;12.80;99.90;;;;;;4960868;28;20210;-32
2023/11/20 00:46:25;;;;;;;8.60;2.40;;;12.80;99.90;;;;;;4977504;28;20427;-32
2023/11/20 00:48:51;;;;;;;5.43;2.40;;;12.80;99.90;;;;;;4976363;28;20472;-36
2023/11/20 00:51:17;;;;;;;5.33;2.27;;;12.80;99.90;;;;;;4992874;28;20452;-32
2023/11/20 00:53:48;;;;;;;7.23;2.40;;;12.80;99.90;;;;;;4977709;28;21176;-31
2023/11/20 00:56:21;;;;;;;7.93;2.50;;;12.80;99.90;;;;;;4978459;28;20526;-32
2023/11/20 00:58:47;;;;;;;5.97;2.40;;;12.80;99.90;;;;;;4991878;28;20210;-32
2023/11/20 01:01:13;;;;;;;6.10;2.60;;;12.80;99.90;;;;;;4995716;28;21770;-32
2023/11/20 01:03:40;;;;;;;6.47;2.10;;;12.80;99.90;;;;;;4976053;28;21042;-32
2023/11/20 01:06:08;;;;;;;6.30;2.37;;;12.80;99.90;;;;;;4977330;28;21308;-36
2023/11/20 01:08:35;;;;;;;3.60;2.27;;;12.80;99.90;;;;;;4951037;28;20948;-30
2023/11/20 01:11:10;;;;;;;5.70;1.73;;;12.80;99.90;;;;;;4978991;28;20425;-31
2023/11/20 01:13:37;;;;;;;7.73;2.40;;;12.80;99.90;;;;;;4992141;28;21080;-34
2023/11/20 01:16:05;;;;;;;8.20;2.90;;;12.80;99.90;;;;;;4994785;28;20450;-33
2023/11/20 01:18:33;;;;;;;5.23;2.27;;;12.80;99.90;;;;;;4995292;28;20461;-33
2023/11/20 01:20:59;;;;;;;5.90;2.10;;;12.80;99.90;;;;;;4977020;28;20475;-35
2023/11/20 01:23:25;;;;;;;6.27;2.00;;;12.80;99.90;;;;;;4979405;28;20447;-36
2023/11/20 01:25:51;;;;;;;8.07;2.30;;;12.80;99.90;;;;;;4995483;28;20455;-30
2023/11/20 01:28:19;;;;;;;3.87;1.90;;;12.80;99.90;;;;;;4964330;28;20431;-35
2023/11/20 01:30:45;;;;;;;5.43;1.90;;;12.80;99.90;;;;;;4971695;28;20427;-34
2023/11/20 01:33:15;;;;;;;4.03;2.42;;;12.80;99.90;;;;;;4969555;28;20227;-33
2023/11/20 01:35:47;;;;;;;5.20;1.90;;;12.80;99.90;;;;;;4993496;28;20240;-32
2023/11/20 01:38:13;;;;;;;3.60;1.50;;;12.80;99.90;;;;;;4988633;28;21033;-32
2023/11/20 01:40:39;;;;;;;3.13;1.67;;;12.80;99.90;;;;;;4978730;28;20216;-33
2023/11/20 01:43:08;;;;;;;5.67;1.83;;;12.90;99.90;;;;;;4996401;28;20446;-33
2023/11/20 01:45:38;;;;;;;5.20;1.93;;;12.80;99.90;;;;;;4997008;28;20470;-31
2023/11/20 01:48:05;;;;;;;4.17;1.80;;;12.80;99.90;;;;;;4974481;28;20432;-32
2023/11/20 01:50:34;;;;;;;4.03;1.70;;;12.80;99.90;;;;;;4992929;28;20493;-33
2023/11/20 01:53:02;;;;;;;7.40;1.90;;;12.80;99.90;;;;;;4989374;28;20450;-34
2023/11/20 01:55:29;;;;;;;3.70;1.80;;;12.80;99.90;;;;;;4977316;28;20454;-36
2023/11/20 01:57:56;;;;;;;3.27;1.80;;;12.80;99.90;;;;;;4992694;28;20430;-31
2023/11/20 02:00:22;;;;;;;6.30;2.00;;;12.80;99.90;;;;;;4994808;28;20840;-36
2023/11/20 02:02:49;;;;;;;3.80;1.70;;;12.90;99.90;;;;;;4972827;28;20472;-35
2023/11/20 02:05:15;;;;;;;5.05;2.40;;;12.80;99.90;;;;;;4996270;28;20435;-36
2023/11/20 02:07:45;;;;;;;4.55;1.73;;;12.80;99.90;;;;;;4979070;28;20288;-33
2023/11/20 02:10:11;;;;;;;1.80;1.50;;;12.90;99.90;;;;;;4978481;28;20202;-32
2023/11/20 02:12:39;;;;;;;2.65;1.38;;;12.90;99.90;;;;;;4990013;28;20543;-32
2023/11/20 02:15:08;;;;;;;3.92;1.90;;;12.90;99.90;;;;;;4979268;28;20204;-34
2023/11/20 02:17:34;;;;;;;7.07;2.27;;;12.90;99.90;;;;;;4977463;28;20236;-29
2023/11/20 02:20:00;;;;;;;4.90;2.00;;;13.00;99.90;;;;;;4981971;28;20623;-33
2023/11/20 02:22:26;;;;;;;5.00;2.60;;;13.00;99.90;;;;;;4981816;28;20732;-30
2023/11/20 02:24:59;;;;;;;3.87;2.03;;;12.90;99.90;;;;;;4981029;28;20205;-31
2023/11/20 02:27:32;;;;;;;5.67;1.93;;;12.90;99.90;;;;;;4999842;28;20866;-34
2023/11/20 02:30:03;;;;;;;8.80;2.40;;;12.90;99.90;;;;;;4985682;28;20446;-33
2023/11/20 02:32:33;;;;;;;4.70;1.87;;;12.90;99.90;;;;;;4985729;28;21083;-29
2023/11/20 02:34:59;;;;;;;3.10;1.70;;;12.90;99.90;;;;;;4997105;28;20960;-31
2023/11/20 02:37:28;;;;;;;5.77;2.30;;;12.90;99.90;;;;;;4980631;22;20497;-72
2023/11/20 02:39:58;;;;;;;8.93;2.73;;;12.90;99.90;;;;;;4985496;28;21088;-71
2023/11/20 02:42:25;;;;;;;7.80;2.77;;;12.80;99.90;;;;;;5008898;28;20793;-72
2023/11/20 02:44:51;;;;;;;9.70;2.17;;;12.80;99.90;;;;;;4985246;28;20535;-72
2023/11/20 02:47:17;;;;;;;10.20;2.83;;;12.80;99.90;;;;;;5004338;28;20449;-71
2023/11/20 02:49:45;;;;;;;7.37;2.60;;;12.80;99.90;;;;;;5020492;28;21272;-71
2023/11/20 02:52:12;;;;;;;4.27;2.40;;;12.80;99.90;;;;;;4976461;28;21050;-71
2023/11/20 02:54:38;;;;;;;5.50;2.60;;;12.80;99.90;;;;;;5000819;28;20467;-72
2023/11/20 02:57:04;;;;;;;12.07;3.03;;;12.80;99.90;;;;;;5004336;28;20911;-71
2023/11/20 02:59:30;;;;;;;9.60;2.13;;;12.80;99.90;;;;;;5001914;28;20996;-71
2023/11/20 03:01:56;;;;;;;7.63;2.50;;;12.80;99.90;;;;;;4999491;28;20537;-71
2023/11/20 03:04:23;;;;;;;7.43;2.50;;;12.80;99.90;;;;;;5037920;28;21017;-71
2023/11/20 03:06:49;;;;;;;8.73;2.47;;;12.80;99.90;;;;;;5020657;28;20414;-71
2023/11/20 03:09:18;;;;;;;7.03;3.60;;;12.80;99.90;;;;;;4980495;28;20268;-71
2023/11/20 03:11:45;;;;;;;7.03;2.70;;;12.80;99.90;;;;;;5033767;28;20522;-71
2023/11/20 03:14:12;;;;;;;7.30;2.83;;;12.80;99.90;;;;;;5001837;28;20462;-71
2023/11/20 03:16:38;;;;;;;7.57;2.20;;;12.80;99.90;;;;;;4995690;28;20435;-71
2023/11/20 03:19:10;;;;;;;8.73;3.00;;;12.80;99.90;;;;;;5014361;28;20249;-72
2023/11/20 03:21:40;;;;;;;6.80;2.67;;;12.80;99.90;;;;;;5003804;28;20450;-71
2023/11/20 03:24:07;;;;;;;8.45;2.78;;;12.80;99.90;;;;;;5010262;28;20455;-71
2023/11/20 03:26:33;;;;;;;4.90;2.10;;;12.90;99.90;;;;;;5030079;28;20185;-71
2023/11/20 03:28:59;;;;;;;8.10;3.47;;;12.80;99.90;;;;;;5037770;28;21000;-71
2023/11/20 03:31:36;;;;;;;11.83;2.87;;;12.90;99.90;;;;;;5015604;28;20188;-71
2023/11/20 03:34:04;;;;;;;7.70;3.23;;;12.80;99.90;;;;;;5004172;28;20553;-71
2023/11/20 03:36:31;;;;;;;7.65;2.90;;;12.80;99.90;;;;;;5010544;28;20430;-71
2023/11/20 03:38:59;;;;;;;8.63;3.17;;;12.90;99.90;;;;;;5016003;28;20234;-71
2023/11/20 03:41:25;;;;;;;9.47;3.10;;;12.90;99.90;;;;;;5016742;28;20472;-71
2023/11/20 03:43:52;;;;;;;10.10;3.37;;;12.90;99.90;;;;;;5003161;28;20426;-71
2023/11/20 03:46:19;;;;;;;10.10;2.83;;;12.80;99.90;;;;;;5022290;28;20444;-71
2023/11/20 03:48:45;;;;;;;11.93;3.60;;;12.80;99.90;;;;;;5016727;28;20445;-70
2023/11/20 03:51:15;;;;;;;9.53;2.87;;;12.80;99.90;;;;;;5034316;28;20420;-71
2023/11/20 03:53:42;;;;;;;8.90;3.50;;;12.80;99.90;;;;;;4991173;28;21250;-71
2023/11/20 03:56:12;;;;;;;6.17;2.53;;;12.80;99.90;;;;;;5001508;28;20301;-70
2023/11/20 03:58:40;;;;;;;9.20;3.60;;;12.80;99.90;;;;;;5019962;28;20433;-71
2023/11/20 04:01:06;;;;;;;8.53;3.00;;;12.80;99.90;;;;;;5016441;28;20564;-71
2023/11/20 04:03:33;;;;;;;10.57;2.90;;;12.80;99.90;;;;;;5002815;28;20498;-71
2023/11/20 04:06:02;;;;;;;11.10;3.00;;;12.80;99.90;;;;;;5002148;28;20536;-71
2023/11/20 04:08:31;;;;;;;5.83;2.40;;;12.80;99.90;;;;;;5038606;28;20433;-70
2023/11/20 04:10:57;;;;;;;5.07;2.50;;;12.80;99.90;;;;;;5014646;28;21018;-71
2023/11/20 04:13:23;;;;;;;8.53;2.97;;;12.80;99.90;;;;;;5006374;28;21171;-70
2023/11/20 04:15:49;;;;;;;7.47;2.80;;;12.80;99.90;;;;;;5036968;28;20456;-70
2023/11/20 04:18:15;;;;;;;8.57;2.83;;;12.80;99.90;;;;;;5014372;28;20526;-71
2023/11/20 04:20:42;;;;;;;10.40;2.90;;;12.80;99.90;;;;;;5028573;28;20255;-71
2023/11/20 04:23:08;;;;;;;7.37;2.80;;;12.80;99.90;;;;;;5036956;28;21045;-71
2023/11/20 04:25:34;;;;;;;8.77;3.00;;;12.80;99.90;;;;;;5035300;28;21035;-70
2023/11/20 04:28:00;;;;;;;3.37;2.30;;;12.80;99.90;;;;;;5018207;28;20452;-71
2023/11/20 04:30:26;;;;;;;3.40;2.43;;;12.80;99.90;;;;;;5013980;28;20440;-71
2023/11/20 04:32:54;;;;;;;7.80;2.73;;;12.80;99.90;;;;;;5002434;28;20448;-70
2023/11/20 04:35:20;;;;;;;3.23;2.17;;;12.80;99.90;;;;;;5004480;28;20465;-71
2023/11/20 04:37:46;;;;;;;4.70;2.83;;;12.70;99.90;;;;;;5042032;28;20444;-70
2023/11/20 04:40:13;;;;;;;5.13;2.50;;;12.80;99.90;;;;;;5037809;28;20545;-71
2023/11/20 04:42:41;;;;;;;7.30;2.40;;;12.70;99.90;;;;;;5038144;28;20415;-70
2023/11/20 04:45:08;;;;;;;4.40;2.07;;;12.80;99.90;;;;;;5035900;28;20448;-71
2023/11/20 04:47:34;;;;;;;7.03;3.00;;;12.70;99.90;;;;;;5038776;28;20456;-70
2023/11/20 04:50:00;;;;;;;4.27;2.00;;;12.70;99.90;;;;;;5030786;28;20487;-71
2023/11/20 04:52:29;;;;;;;4.10;2.60;;;12.70;99.90;;;;;;5047966;28;21129;-71
2023/11/20 04:54:55;;;;;;;7.23;2.93;;;12.80;99.90;;;;;;5036819;28;20443;-71
2023/11/20 04:57:22;;;;;;;6.40;2.17;;;12.70;99.90;;;;;;5052358;28;21226;-71
2023/11/20 04:59:47;;;;;;;5.35;2.35;;;12.70;99.90;;;;;;5012560;28;20531;-71
2023/11/20 05:02:13;;;;;;;3.50;2.00;;;12.70;99.90;;;;;;5054654;28;20187;-71
2023/11/20 05:04:42;;;;;;;3.50;2.20;;;12.80;99.90;;;;;;5034078;28;21060;-70
2023/11/20 05:07:08;;;;;;;4.10;1.90;;;12.80;99.90;;;;;;5053895;28;20441;-71
2023/11/20 05:09:34;;;;;;;3.85;2.08;;;12.80;99.90;;;;;;5037958;28;20227;-71
2023/11/20 05:12:02;;;;;;;4.90;2.10;;;12.80;99.90;;;;;;5054075;28;20302;-71
2023/11/20 05:14:29;;;;;;;4.45;2.38;;;12.90;99.90;;;;;;5017972;28;21000;-71
2023/11/20 05:16:57;;;;;;;8.80;2.38;;;12.90;99.90;;;;;;5054077;28;21027;-71
2023/11/20 05:19:23;;;;;;;5.60;2.28;;;12.90;99.90;;;;;;5033009;28;20195;-71
2023/11/20 05:21:50;;;;;;;4.83;2.30;;;12.90;99.90;;;;;;5019369;28;20227;-71
2023/11/20 05:24:18;;;;;;;2.83;2.20;;;13.00;99.90;;;;;;5029124;28;20421;-70
2023/11/20 05:26:44;;;;;;;3.80;2.30;;;12.90;99.90;;;;;;5035753;28;20481;-71
2023/11/20 05:29:12;;;;;;;3.73;2.43;;;12.90;99.90;;;;;;5012916;28;20457;-70
2023/11/20 05:31:38;;;;;;;4.10;2.13;;;12.80;99.90;;;;;;5049710;28;20473;-71
2023/11/20 05:34:06;;;;;;;6.13;2.60;;;12.80;99.90;;;;;;5049596;28;20449;-71
2023/11/20 05:36:33;;;;;;;6.47;2.10;;;12.80;99.90;;;;;;5032077;28;20466;-71
2023/11/20 05:39:01;;;;;;;7.20;2.57;;;12.80;99.90;;;;;;5015611;28;20457;-70
2023/11/20 05:41:29;;;;;;;5.17;2.20;;;12.80;99.90;;;;;;5044056;28;20500;-70
2023/11/20 05:43:57;;;;;;;3.30;2.40;;;12.80;99.90;;;;;;5023458;28;20426;-71
2023/11/20 05:46:26;;;;;;;9.63;2.50;;;12.80;99.90;;;;;;5015629;28;20448;-69
2023/11/20 05:48:52;;;;;;;5.90;2.63;;;12.80;99.90;;;;;;5051995;28;20187;-69
2023/11/20 05:51:21;;;;;;;5.80;2.50;;;12.80;99.90;;;;;;5035301;28;20452;-68
2023/11/20 05:53:49;;;;;;;5.67;3.40;;;12.80;99.90;;;;;;5017102;28;20432;-72
2023/11/20 05:56:15;;;;;;;5.03;2.00;;;12.80;99.90;;;;;;5021897;28;20762;-69
2023/11/20 05:58:44;;;;;;;6.30;2.30;;;12.70;99.90;;;;;;5047301;28;20526;-69
2023/11/20 06:01:13;;;;;;;7.90;2.78;;;12.70;99.90;;;;;;4997979;28;20469;-69
2023/11/20 06:03:39;;;;;;;7.68;2.92;;;12.70;99.90;;;;;;5008272;28;20215;-69
2023/11/20 06:06:05;;;;;;;7.73;2.90;;;12.80;99.90;;;;;;5016185;28;21019;-69
2023/11/20 06:08:36;;;;;;;11.13;3.20;;;12.80;99.90;;;;;;5014750;28;20487;-69
2023/11/20 06:11:04;;;;;;;12.13;3.40;;;12.80;99.90;;;;;;5030468;28;20426;-69
2023/11/20 06:13:30;;;;;;;7.97;3.27;;;12.80;99.90;;;;;;5043366;28;20210;-69
2023/11/20 06:15:56;;;;;;;4.07;2.90;;;12.80;99.90;;;;;;5047671;28;20453;-69
2023/11/20 06:18:22;;;;;;;8.80;3.70;;;12.80;99.90;;;;;;5035592;28;20436;-69
2023/11/20 06:20:50;;;;;;;6.17;3.10;;;12.80;99.90;;;;;;5053899;28;20475;-69
2023/11/20 06:23:20;;;;;;;7.88;3.72;;;12.80;99.90;;;;;;5020085;28;20564;-69
2023/11/20 06:25:46;;;;;;;8.23;2.87;;;12.80;99.90;;;;;;5042384;28;20584;-69
2023/11/20 06:28:12;;;;;;;5.97;2.83;;;12.80;99.90;;;;;;5035277;28;20478;-69
2023/11/20 06:30:41;;;;;;;9.30;3.20;;;12.80;99.90;;;;;;5034443;28;20460;-69
2023/11/20 06:33:12;;;;;;;10.40;2.90;;;12.80;99.90;;;;;;5029264;28;20533;-69
2023/11/20 06:35:38;;;;;;;7.10;3.90;;;12.80;99.90;;;;;;5016758;28;20456;-69
2023/11/20 06:38:06;;;;;;;11.60;3.30;;;12.70;99.90;;;;;;5024106;28;20463;-69
2023/11/20 06:40:38;;;;;;;6.53;3.03;;;12.70;99.90;;;;;;5027608;28;20469;-69
2023/11/20 06:43:07;;;;;;;10.27;2.80;;;12.70;99.90;;;;;;4999926;28;20442;-69
2023/11/20 06:45:33;;;;;;;8.00;3.50;;;12.70;99.90;;;;;;5004700;28;20452;-72
2023/11/20 06:48:01;;;;;;;5.00;2.70;;;12.70;99.90;;;;;;5007915;28;20488;-68
2023/11/20 06:50:32;;;;;;;8.33;3.50;;;12.70;99.90;;;;;;5020706;28;20541;-71
2023/11/20 06:52:59;;;;;;;6.47;2.90;;;12.70;99.90;;;;;;5051103;28;20495;-70
2023/11/20 06:55:26;;;;;;;6.50;3.75;;;12.70;99.90;;;;;;5036356;28;20458;-71
2023/11/20 06:57:56;;;;;;;12.00;3.07;;;12.70;99.90;;;;;;5040825;28;20203;-70
2023/11/20 07:00:23;;;;;;;10.10;4.20;;;12.70;99.90;;;;;;5028066;28;20465;-70
2023/11/20 07:02:52;;;;;;;5.83;3.03;;;12.70;99.90;;;;;;5021452;28;20242;-68
2023/11/20 07:05:23;;;;;;;8.43;3.77;;;12.80;99.90;;;;;;5047748;28;20494;-71
2023/11/20 07:07:55;;;;;;;5.38;3.20;;;12.80;99.90;;;;;;5034789;28;20425;-68
2023/11/20 07:10:25;;;;;;;6.57;3.33;;;12.80;99.90;;;;;;5047003;28;20188;-69
2023/11/20 07:12:56;;;;;;;9.57;4.27;;;12.70;99.90;;;;;;5011215;28;20453;-70
2023/11/20 07:15:24;;;;;;;11.10;3.40;;;12.70;99.90;;;;;;5037020;28;20459;-70
2023/11/20 07:17:50;;;;;;;8.93;3.83;;;12.70;99.90;;;;;;5046170;28;20482;-70
2023/11/20 07:20:20;;;;;;;4.93;3.10;;;12.70;99.90;;;;;;5043756;28;20900;-70
2023/11/20 07:22:47;;;;;;;12.63;4.20;;;12.70;99.90;;;;;;5026327;28;20447;-69
2023/11/20 07:25:14;;;;;;;12.80;3.33;;;12.70;99.90;;;;;;5007125;28;20468;-70
2023/11/20 07:27:40;;;;;;;13.97;3.50;;;12.70;99.90;;;;;;5028069;28;20445;-69
2023/11/20 07:30:07;;;;;;;9.30;3.43;;;12.70;99.90;;;;;;5011573;28;20437;-71
2023/11/20 07:32:35;;;;;;;13.53;4.03;;;12.60;99.90;;;;;;5036383;28;20443;-71
2023/11/20 07:35:04;;;;;;;10.23;3.30;;;12.60;99.90;;;;;;5048250;28;20452;-71
2023/11/20 07:37:35;;;;;;;8.80;3.67;;;12.60;99.90;;;;;;5014777;28;20453;-71
2023/11/20 07:40:08;;;;;;;10.37;3.80;;;12.60;99.90;;;;;;5052105;28;20474;-71
2023/11/20 07:42:37;;;;;;;9.17;3.17;;;12.60;99.90;;;;;;5029210;28;20437;-71
2023/11/20 07:45:04;;;;;;;11.88;3.20;;;12.60;99.90;;;;;;5044413;28;20454;-72
2023/11/20 07:47:30;;;;;;;7.90;3.00;;;12.60;99.90;;;;;;5010997;28;20192;-71
2023/11/20 07:49:58;;;;;;;7.27;3.30;;;12.70;99.90;;;;;;5024300;28;20443;-72
2023/11/20 07:52:27;;;;;;;13.60;4.50;;;12.70;99.90;;;;;;5052267;22;20564;-72
2023/11/20 07:54:53;;;;;;;12.10;3.58;;;12.70;99.90;;;;;;5016659;28;20455;-72
2023/11/20 07:57:23;;;;;;;10.77;3.70;;;12.70;99.90;;;;;;5015446;28;20279;-69
2023/11/20 07:59:50;;;;;;;10.37;4.97;;;12.70;99.90;;;;;;4981940;28;21067;-71
2023/11/20 08:02:20;;;;;;;9.63;3.33;;;12.70;99.90;;;;;;5019693;28;20954;-70
2023/11/20 08:04:50;;;;;;;11.93;4.10;;;12.70;99.90;;;;;;5022022;28;20436;-70
2023/11/20 08:07:20;;;;;;;9.63;3.67;;;12.70;99.90;;;;;;5024908;28;20501;-70
2023/11/20 08:09:49;;;;;;;10.27;3.87;;;12.70;99.90;;;;;;5000281;28;20451;-69
2023/11/20 08:12:16;;;;;;;7.30;3.73;;;12.60;99.90;;;;;;4995708;28;20441;-68
2023/11/20 08:14:42;;;;;;;9.30;3.50;;;12.60;99.90;;;;;;5016985;28;20456;-69
2023/11/20 08:17:15;;;;;;;12.03;3.80;;;12.60;99.90;;;;;;5010572;28;20436;-69
2023/11/20 08:19:43;;;;;;;7.00;3.17;;;12.60;99.90;;;;;;5003078;28;20470;-71
2023/11/20 08:22:17;;;;;;;11.10;3.73;;;12.60;99.90;;;;;;4996967;28;21173;-69
2023/11/20 08:24:48;;;;;;;11.80;3.90;;;12.60;99.90;;;;;;5000355;28;20448;-70
2023/11/20 08:27:16;;;;;;;6.70;3.22;;;12.60;99.90;;;;;;5019143;28;20426;-69
2023/11/20 08:29:44;;;;;;;15.73;4.40;;;12.60;99.90;;;;;;4997814;28;20583;-71
2023/11/20 08:32:11;;;;;;;13.37;3.10;;;12.70;99.90;;;;;;5000240;28;20422;-70
2023/11/20 08:34:37;;;;;;;7.83;3.73;;;12.70;99.90;;;;;;5005182;28;20458;-72
2023/11/20 08:37:07;;;;;;;9.93;3.10;;;12.70;99.90;;;;;;5015889;28;20466;-72
2023/11/20 08:39:38;;;;;;;11.27;3.20;;;12.70;99.90;;;;;;4975582;28;20232;-69
2023/11/20 08:42:06;;;;;;;11.40;3.47;;;12.70;99.90;;;;;;5009314;28;20466;-72
2023/11/20 08:44:33;;;;;;;8.70;3.20;;;12.70;99.90;;;;;;4976788;28;20521;-70
2023/11/20 08:47:05;;;;;;;14.27;3.50;;;12.70;99.90;;;;;;5014792;28;20465;-73
2023/11/20 08:49:31;;;;;;;9.47;3.00;;;12.70;99.90;;;;;;4996664;28;21329;-71
2023/11/20 08:51:57;;;;;;;9.77;3.30;;;12.70;99.90;;;;;;4996365;28;20440;-72
2023/11/20 08:54:26;;;;;;;8.82;3.60;;;12.70;99.90;;;;;;4979138;28;20554;-72
2023/11/20 08:56:53;;;;;;;10.90;3.20;;;12.70;99.90;;;;;;4998146;28;20275;-71
2023/11/20 08:59:19;;;;;;;10.27;4.00;;;12.70;99.90;;;;;;4995426;28;20454;-69
2023/11/20 09:01:47;;;;;;;8.63;3.20;;;12.70;99.90;;;;;;5022276;28;20438;-70
2023/11/20 09:04:13;;;;;;;7.97;2.77;;;12.70;99.90;;;;;;5017841;28;20435;-69
2023/11/20 09:06:43;;;;;;;13.63;3.60;;;12.70;99.90;;;;;;4997858;28;20427;-71
2023/11/20 09:09:11;;;;;;;11.50;3.70;;;12.60;99.90;;;;;;5025967;28;20916;-71
2023/11/20 09:11:41;;;;;;;8.07;2.92;;;12.70;99.90;;;;;;5002040;28;20447;-72
2023/11/20 09:14:08;;;;;;;10.07;3.20;;;12.70;99.90;;;;;;4982767;28;20195;-69
2023/11/20 09:16:36;;;;;;;9.57;3.53;;;12.70;99.90;;;;;;5002691;28;20423;-70
2023/11/20 09:19:02;;;;;;;8.47;2.83;;;12.70;99.90;;;;;;5001889;28;20423;-70
2023/11/20 09:21:28;;;;;;;10.00;3.03;;;12.70;99.90;;;;;;4998810;28;20480;-70
2023/11/20 09:23:54;;;;;;;7.87;3.17;;;12.70;99.90;;;;;;4996065;28;20438;-70
2023/11/20 09:26:23;;;;;;;6.43;3.27;;;12.70;99.90;;;;;;5020066;28;20927;-69
2023/11/20 09:28:52;;;;;;;11.23;3.30;;;12.60;99.90;;;;;;5013467;28;20986;-70
2023/11/20 09:31:20;;;;;;;9.10;3.57;;;12.60;99.90;;;;;;5004068;28;21013;-69
2023/11/20 09:33:52;;;;;;;7.00;2.80;;;12.60;99.90;;;;;;4989993;28;20431;-69
2023/11/20 09:36:20;;;;;;;9.17;3.30;;;12.60;99.90;;;;;;5013025;28;20489;-71
2023/11/20 09:38:48;;;;;;;11.20;3.03;;;12.60;99.90;;;;;;4996890;28;20438;-69
2023/11/20 09:41:16;;;;;;;7.70;2.60;;;12.60;99.90;;;;;;4993881;28;20522;-70
2023/11/20 09:43:48;;;;;;;9.88;2.60;;;12.60;99.90;;;;;;5013722;28;20896;-71
2023/11/20 09:46:15;;;;;;;7.07;2.40;;;12.60;99.90;;;;;;5011398;28;20350;-69
2023/11/20 09:48:44;;;;;;;7.30;2.57;;;12.70;99.90;;;;;;5007860;28;20410;-70
2023/11/20 09:51:11;;;;;;;10.00;3.00;;;12.70;99.90;;;;;;5004117;28;21224;-70
2023/11/20 09:53:40;;;;;;;8.05;3.25;;;12.70;99.90;;;;;;4987380;28;21055;-69
2023/11/20 09:56:09;;;;;;;8.02;3.20;;;12.70;99.90;;;;;;5014429;28;20259;-69
2023/11/20 09:58:38;;;;;;;6.20;2.70;;;12.70;99.90;;;;;;5006122;28;20196;-70
2023/11/20 10:01:09;;;;;;;8.83;2.90;;;12.80;99.90;;;;;;4992510;28;20266;-70
2023/11/20 10:03:42;;;;;;;9.57;3.43;;;12.80;99.90;;;;;;5008671;28;20432;-70
2023/11/20 10:06:13;;;;;;;5.77;2.77;;;12.80;99.90;;;;;;5006870;28;20457;-70
2023/11/20 10:08:46;;;;;;;10.65;3.22;;;12.80;99.90;;;;;;5019473;28;20422;-70
2023/11/20 10:11:21;;;;;;;8.65;2.72;;;12.80;99.90;;;;;;5015818;28;20193;-71
2023/11/20 10:13:48;;;;;;;5.10;2.53;;;12.80;99.90;;;;;;5010097;28;20770;-70
2023/11/20 10:16:22;;;;;;;11.13;2.53;;;12.80;99.90;;;;;;5021433;28;21802;-70
2023/11/20 10:18:54;;;;;;;11.30;3.00;;;12.80;99.90;;;;;;5023281;28;20776;-68
2023/11/20 10:21:25;;;;;;;9.90;3.13;;;12.80;99.90;;;;;;5021602;28;21300;-70
2023/11/20 10:24:00;;;;;;;6.57;2.87;;;12.80;99.90;;;;;;5001675;28;20426;-71
2023/11/20 10:26:27;;;;;;;6.47;2.90;;;12.80;99.90;;;;;;5011320;28;20456;-71
2023/11/20 10:28:57;;;;;;;9.10;2.60;;;12.70;99.90;;;;;;5002427;28;21019;-70
2023/11/20 10:31:26;;;;;;;10.18;3.35;;;12.70;99.90;;;;;;4980303;28;20766;-70
2023/11/20 10:34:06;;;;;;;6.90;3.60;;;12.70;99.90;;;;;;4985211;28;20190;-70
2023/11/20 10:36:34;;;;;;;6.93;2.40;;;12.70;99.90;;;;;;5008580;28;20415;-70
2023/11/20 10:39:00;;;;;;;5.27;2.20;;;12.70;99.90;;;;;;5002173;28;20924;-69
2023/11/20 10:41:26;;;;;;;4.97;2.23;;;12.70;99.90;;;;;;5007026;28;20534;-70
2023/11/20 10:43:57;;;;;;;8.63;3.78;;;12.70;99.90;;;;;;4996896;28;20425;-69
2023/11/20 10:46:28;;;;;;;7.27;2.93;;;12.70;99.90;;;;;;5013586;28;20255;-70
2023/11/20 10:49:05;;;;;;;11.27;3.30;;;12.70;99.90;;;;;;5005468;28;20485;-70
2023/11/20 10:51:36;;;;;;;12.00;2.70;;;12.70;99.90;;;;;;4988614;28;20467;-70
2023/11/20 10:54:12;;;;;;;6.10;2.53;;;12.80;99.90;;;;;;5015445;28;20212;-70
2023/11/20 10:56:42;;;;;;;5.40;2.87;;;12.80;99.90;;;;;;5005225;28;20500;-70
2023/11/20 10:59:12;;;;;;;8.20;2.67;;;12.80;99.90;;;;;;5010355;28;20432;-70
2023/11/20 11:01:41;;;;;;;9.93;3.17;;;12.80;99.90;;;;;;5011136;28;20222;-70
2023/11/20 11:04:13;;;;;;;8.13;2.50;;;12.80;99.90;;;;;;4987103;28;21055;-70
2023/11/20 11:06:44;;;;;;;7.50;2.53;;;12.80;99.90;;;;;;5001845;28;20773;-70
2023/11/20 11:09:16;;;;;;;7.40;2.95;;;12.80;99.90;;;;;;5002204;28;20476;-69
2023/11/20 11:11:45;;;;;;;4.90;2.70;;;12.80;99.90;;;;;;4984730;28;20229;-70
2023/11/20 11:14:14;;;;;;;6.03;2.00;;;12.80;99.90;;;;;;4999227;28;20480;-71
2023/11/20 11:16:49;;;;;;;6.43;2.63;;;12.80;99.90;;;;;;4973951;28;20439;-69
2023/11/20 11:19:25;;;;;;;4.93;2.13;;;12.80;99.90;;;;;;5015190;28;20234;-72
2023/11/20 11:22:00;;;;;;;8.33;3.17;;;12.80;99.90;;;;;;4985230;28;20964;-71
2023/11/20 11:24:33;;;;;;;5.07;2.47;;;12.80;99.90;;;;;;4984313;28;20545;-69
2023/11/20 11:27:04;;;;;;;3.93;2.37;;;12.80;99.90;;;;;;5007171;28;20712;-74
2023/11/20 11:29:40;;;;;;;7.20;2.60;;;12.80;99.90;;;;;;4976384;28;20504;-67
2023/11/20 11:32:06;;;;;;;2.73;2.10;;;12.80;99.90;;;;;;5000966;28;21102;-69
2023/11/20 11:34:48;;;;;;;6.77;2.80;;;12.80;99.90;;;;;;5006895;28;20537;-67
2023/11/20 11:37:46;;;;;;;6.43;2.50;;;12.70;99.90;;;;;;5018689;28;20435;-69
2023/11/20 11:40:23;;;;;;;3.93;2.00;;;12.70;99.90;;;;;;4994086;28;20558;-69
2023/11/20 11:42:55;;;;;;;7.88;2.80;;;12.70;99.90;;;;;;4988923;28;20490;-68
2023/11/20 11:45:27;;;;;;;5.27;2.37;;;12.80;99.90;;;;;;5012709;28;20209;-67
2023/11/20 11:47:54;;;;;;;4.68;2.25;;;12.80;99.90;;;;;;5017848;28;20415;-68
2023/11/20 11:50:20;;;;;;;5.90;2.00;;;12.80;99.90;;;;;;5004608;28;20247;-68
2023/11/20 11:52:50;;;;;;;3.80;2.10;;;12.80;99.90;;;;;;5005468;28;20427;-67
2023/11/20 11:55:16;;;;;;;10.27;2.40;;;12.90;99.90;;;;;;5020285;28;20552;-67
2023/11/20 11:57:45;;;;;;;4.57;3.63;;;12.80;99.90;;;;;;5023019;28;20438;-67
2023/11/20 12:00:26;;;;;;;5.57;2.30;;;12.80;99.90;;;;;;5015233;28;20209;-69
2023/11/20 12:02:57;;;;;;;3.87;2.30;;;12.90;99.90;;;;;;5000250;28;20426;-67
2023/11/20 12:05:28;;;;;;;8.30;2.10;;;12.90;99.90;;;;;;5001810;28;20435;-69
2023/11/20 12:08:04;;;;;;;3.92;2.67;;;12.90;99.90;;;;;;4972540;28;20463;-69
2023/11/20 12:10:49;;;;;;;4.83;2.33;;;12.90;99.90;;;;;;5010731;28;20191;-67
2023/11/20 12:13:16;;;;;;;5.10;2.20;;;13.00;99.90;;;;;;5022917;28;20424;-65
2023/11/20 12:15:50;;;;;;;4.20;2.07;;;13.00;99.90;;;;;;5006859;28;20475;-68
2023/11/20 12:18:21;;;;;;;5.80;2.37;;;12.90;99.90;;;;;;4990164;28;20446;-65
2023/11/20 12:20:51;;;;;;;6.60;2.20;;;12.90;99.90;;;;;;4996335;28;21086;-68
2023/11/20 12:23:32;;;;;;;4.90;1.80;;;12.90;99.90;;;;;;5032221;28;20899;-68
2023/11/20 12:26:00;;;;;;;2.70;1.60;;;12.80;99.90;;;;;;5003416;28;20471;-70
2023/11/20 12:28:36;;;;;;;2.93;1.80;;;12.80;99.90;;;;;;5000662;28;20431;-68
2023/11/20 12:31:07;;;;;;;5.40;2.00;;;12.90;99.90;;;;;;5003093;28;20855;-68
2023/11/20 12:33:41;;;;;;;2.97;1.77;;;12.90;99.90;;;;;;5000121;28;20963;-67
2023/11/20 12:36:09;;;;;;;4.67;1.83;;;12.90;99.90;;;;;;5026650;28;20440;-68
2023/11/20 12:38:37;;;;;;;5.47;1.90;;;12.90;99.90;;;;;;5023416;28;20504;-69
2023/11/20 12:41:08;;;;;;;2.93;1.87;;;12.80;99.90;;;;;;4995628;28;21017;-68
2023/11/20 12:43:35;;;;;;;3.40;1.73;;;12.80;99.90;;;;;;5002917;28;20426;-69
2023/11/20 12:46:15;;;;;;;3.60;1.67;;;12.80;99.90;;;;;;4990688;28;20508;-66
2023/11/20 12:48:45;;;;;;;4.50;2.10;;;12.80;99.90;;;;;;4977773;28;20461;-67
2023/11/20 12:51:12;;;;;;;4.40;1.80;;;12.90;99.90;;;;;;4996943;28;20447;-68
2023/11/20 12:53:38;;;;;;;2.45;1.85;;;12.80;99.90;;;;;;5018546;28;21107;-67